Time;durP1;ratioP1;P1;durP2;ratioP2;P2;SDS_P1;SDS_P2;PMS_P1;PMS_P2;Temp;Humidity;BMP_temperature;BMP_pressure;BME280_temperature;BME280_humidity;BME280_pressure;Samples;Min_cycle;Max_cycle;Signal;HPM_P1;HPM_P2
2021/08/19 00:02:12;;;;;;;20.25;17.90;;;23.90;86.80;;;;;;4977700;28;20521;-84
2021/08/19 00:04:39;;;;;;;22.27;17.02;;;23.90;86.80;;;;;;4978882;28;20035;-84
2021/08/19 00:07:05;;;;;;;22.77;16.75;;;23.90;87.00;;;;;;4965176;28;20035;-86
2021/08/19 00:09:31;;;;;;;22.25;17.45;;;23.90;87.10;;;;;;4974737;28;20045;-85
2021/08/19 00:11:59;;;;;;;22.92;16.80;;;24.00;87.20;;;;;;4961457;28;20049;-83
2021/08/19 00:14:26;;;;;;;22.08;15.63;;;24.00;86.90;;;;;;4958063;28;20070;-84
2021/08/19 00:16:52;;;;;;;24.10;16.58;;;23.90;87.00;;;;;;4942322;29;20035;-84
2021/08/19 00:19:17;;;;;;;22.50;15.80;;;24.00;87.10;;;;;;4959589;29;20039;-85
2021/08/19 00:21:43;;;;;;;21.80;15.68;;;24.00;87.10;;;;;;4961394;28;20043;-84
2021/08/19 00:24:09;;;;;;;21.45;16.30;;;24.00;87.00;;;;;;4945876;29;20046;-83
2021/08/19 00:26:35;;;;;;;20.88;16.38;;;24.00;86.90;;;;;;4945212;29;20594;-83
2021/08/19 00:29:01;;;;;;;19.88;15.82;;;24.00;86.80;;;;;;4955511;28;20066;-83
2021/08/19 00:31:28;;;;;;;20.20;16.75;;;24.10;86.60;;;;;;4980357;28;20512;-81
2021/08/19 00:33:54;;;;;;;23.95;16.05;;;24.00;86.60;;;;;;4980478;28;20038;-83
2021/08/19 00:36:20;;;;;;;22.45;17.23;;;24.00;86.60;;;;;;4981557;28;20035;-85
2021/08/19 00:38:46;;;;;;;25.00;17.13;;;23.90;86.60;;;;;;4980449;28;20073;-84
2021/08/19 00:41:12;;;;;;;23.38;16.98;;;23.90;86.60;;;;;;4963943;28;20054;-84
2021/08/19 00:43:39;;;;;;;24.67;17.50;;;23.90;86.90;;;;;;4979147;28;20034;-84
2021/08/19 00:46:24;;;;;;;23.52;17.98;;;23.80;87.00;;;;;;4977518;28;20086;-83
2021/08/19 00:48:50;;;;;;;;;;;23.80;87.30;;;;;;4980624;28;20453;-84
2021/08/19 00:51:16;;;;;;;24.65;17.83;;;23.70;87.30;;;;;;4980234;28;19910;-82
2021/08/19 00:53:44;;;;;;;22.77;17.30;;;23.80;87.20;;;;;;4964349;28;20031;-83
2021/08/19 00:56:11;;;;;;;20.30;15.30;;;23.80;87.40;;;;;;4980158;28;20057;-84
2021/08/19 00:58:40;;;;;;;25.80;16.25;;;23.80;87.40;;;;;;4986258;28;20069;-87
2021/08/19 01:01:06;;;;;;;22.80;16.35;;;23.80;87.20;;;;;;4980784;28;20094;-86
2021/08/19 01:03:32;;;;;;;22.15;16.30;;;23.80;87.20;;;;;;4964764;28;20066;-86
2021/08/19 01:05:58;;;;;;;20.02;15.77;;;23.80;87.20;;;;;;4948101;28;20134;-85
2021/08/19 01:08:24;;;;;;;21.00;15.15;;;23.80;87.50;;;;;;4964661;28;20097;-85
2021/08/19 01:10:50;;;;;;;21.90;15.60;;;23.70;87.40;;;;;;4981019;28;20042;-86
2021/08/19 01:13:16;;;;;;;19.63;15.90;;;23.80;87.50;;;;;;4997085;28;20374;-85
2021/08/19 01:15:42;;;;;;;19.15;15.52;;;23.80;87.20;;;;;;4964645;28;20031;-85
2021/08/19 01:18:08;;;;;;;21.42;15.52;;;23.70;87.20;;;;;;4981742;28;20031;-85
2021/08/19 01:20:34;;;;;;;20.33;15.60;;;23.70;87.50;;;;;;4980590;28;20045;-82
2021/08/19 01:23:01;;;;;;;21.38;16.45;;;23.70;87.30;;;;;;4963291;28;20497;-82
2021/08/19 01:25:28;;;;;;;21.63;16.08;;;23.70;87.20;;;;;;4980895;28;20572;-82
2021/08/19 01:27:55;;;;;;;19.83;14.90;;;23.70;87.40;;;;;;4963615;28;20803;-82
2021/08/19 01:30:23;;;;;;;18.38;14.18;;;23.70;87.40;;;;;;4979883;28;20042;-81
2021/08/19 01:32:49;;;;;;;18.20;14.80;;;23.70;87.50;;;;;;4963314;28;20137;-86
2021/08/19 01:35:22;;;;;;;19.15;14.50;;;23.70;87.60;;;;;;4963143;28;20053;-81
2021/08/19 01:37:49;;;;;;;17.25;14.70;;;23.70;88.10;;;;;;4963841;28;20038;-83
2021/08/19 01:40:16;;;;;;;16.48;13.80;;;23.70;87.50;;;;;;4959459;29;20462;-80
2021/08/19 01:42:42;;;;;;;17.38;13.85;;;23.80;87.40;;;;;;4943443;29;20085;-80
2021/08/19 01:45:10;;;;;;;22.15;13.98;;;23.70;87.50;;;;;;4959107;29;20063;-81
2021/08/19 01:47:36;;;;;;;20.05;13.82;;;23.80;88.20;;;;;;4942987;29;20043;-82
2021/08/19 01:50:03;;;;;;;19.25;14.48;;;23.80;87.40;;;;;;4942982;29;20119;-81
2021/08/19 01:52:29;;;;;;;20.23;14.90;;;23.80;86.90;;;;;;4943531;29;20031;-80
2021/08/19 01:54:55;;;;;;;21.15;15.65;;;23.80;87.00;;;;;;4943353;29;20054;-80
2021/08/19 01:57:21;;;;;;;18.98;15.10;;;23.80;87.30;;;;;;4960842;29;20039;-81
2021/08/19 01:59:47;;;;;;;22.40;15.20;;;23.80;87.10;;;;;;4961403;29;20122;-81
2021/08/19 02:02:13;;;;;;;24.08;15.30;;;23.80;87.20;;;;;;4944405;29;20039;-81
2021/08/19 02:04:39;;;;;;;20.50;15.93;;;23.80;87.10;;;;;;4961097;29;20042;-87
2021/08/19 02:07:05;;;;;;;20.95;15.45;;;23.80;87.00;;;;;;4944676;29;20062;-85
2021/08/19 02:09:31;;;;;;;23.20;17.10;;;23.70;87.10;;;;;;4944274;29;20039;-86
2021/08/19 02:11:56;;;;;;;18.60;15.25;;;23.70;87.20;;;;;;4960037;28;20030;-85
2021/08/19 02:14:22;;;;;;;22.55;15.75;;;23.70;87.10;;;;;;4963208;28;20038;-87
2021/08/19 02:16:48;;;;;;;22.15;16.50;;;23.70;87.20;;;;;;4963840;28;20047;-87
2021/08/19 02:19:14;;;;;;;20.88;16.08;;;23.80;87.20;;;;;;4975912;28;20514;-87
2021/08/19 02:21:40;;;;;;;19.45;16.05;;;23.70;87.10;;;;;;4995689;28;20026;-87
2021/08/19 02:24:06;;;;;;;22.02;16.88;;;23.70;87.10;;;;;;4963330;28;20039;-87
2021/08/19 02:26:32;;;;;;;20.73;16.48;;;23.70;87.10;;;;;;4995778;28;20094;-83
2021/08/19 02:28:58;;;;;;;21.30;15.90;;;23.70;87.40;;;;;;4978570;28;20073;-83
2021/08/19 02:31:24;;;;;;;19.38;16.05;;;23.70;87.50;;;;;;4993592;28;20105;-84
2021/08/19 02:33:50;;;;;;;18.25;16.17;;;23.70;87.20;;;;;;4976538;28;20137;-82
2021/08/19 02:36:15;;;;;;;19.35;15.95;;;23.70;87.20;;;;;;4993341;28;20035;-84
2021/08/19 02:38:41;;;;;;;19.52;15.00;;;23.70;87.40;;;;;;4977669;28;20034;-84
2021/08/19 02:41:08;;;;;;;21.15;16.05;;;23.70;87.60;;;;;;4978213;28;20103;-84
2021/08/19 02:43:40;;;;;;;19.05;15.82;;;23.80;87.50;;;;;;4945162;28;20027;-84
2021/08/19 02:46:06;;;;;;;22.65;17.40;;;23.80;87.30;;;;;;4979924;28;20034;-85
2021/08/19 02:48:32;;;;;;;21.85;17.20;;;23.80;87.40;;;;;;4980096;28;20384;-85
2021/08/19 02:50:58;;;;;;;20.27;16.33;;;23.70;87.10;;;;;;4962894;28;20039;-85
2021/08/19 02:53:24;;;;;;;22.83;16.65;;;23.70;87.40;;;;;;4980600;28;20521;-84
2021/08/19 02:55:50;;;;;;;21.02;15.40;;;23.60;87.40;;;;;;4979653;28;20061;-83
2021/08/19 02:58:15;;;;;;;22.45;16.40;;;23.60;87.50;;;;;;4962960;28;20042;-83
2021/08/19 03:00:41;;;;;;;20.25;15.55;;;23.60;87.50;;;;;;4980178;28;20038;-83
2021/08/19 03:03:07;;;;;;;27.17;16.17;;;23.60;87.40;;;;;;4962217;28;20102;-82
2021/08/19 03:05:33;;;;;;;21.38;16.02;;;23.70;87.50;;;;;;4965680;28;20039;-86
2021/08/19 03:07:59;;;;;;;19.58;15.57;;;23.60;87.50;;;;;;4943017;29;20031;-85
2021/08/19 03:10:25;;;;;;;24.40;16.90;;;23.60;87.60;;;;;;4960791;28;20043;-83
2021/08/19 03:12:51;;;;;;;21.85;15.23;;;23.60;87.60;;;;;;4991954;28;20039;-84
2021/08/19 03:15:17;;;;;;;24.15;16.90;;;23.60;87.70;;;;;;4960632;28;20086;-83
2021/08/19 03:17:43;;;;;;;23.30;16.08;;;23.60;87.50;;;;;;4960496;28;20034;-83
2021/08/19 03:20:10;;;;;;;23.48;15.98;;;23.70;87.60;;;;;;4960916;28;20038;-83
2021/08/19 03:22:37;;;;;;;20.85;15.60;;;23.60;87.70;;;;;;4992258;28;20034;-81
2021/08/19 03:25:03;;;;;;;20.50;15.30;;;23.70;87.60;;;;;;4974147;28;20070;-82
2021/08/19 03:27:31;;;;;;;20.80;16.35;;;23.70;87.70;;;;;;4990549;28;20045;-82
2021/08/19 03:29:57;;;;;;;25.23;15.35;;;23.70;87.80;;;;;;4991889;28;20035;-82
2021/08/19 03:32:23;;;;;;;22.05;15.98;;;23.70;87.70;;;;;;4944093;28;20043;-82
2021/08/19 03:34:49;;;;;;;17.77;15.07;;;23.70;87.40;;;;;;4978835;28;20575;-80
2021/08/19 03:37:15;;;;;;;18.15;16.17;;;23.70;87.30;;;;;;4994566;28;20035;-80
2021/08/19 03:39:42;;;;;;;19.17;14.52;;;23.70;87.50;;;;;;4974734;28;20035;-82
2021/08/19 03:42:08;;;;;;;21.38;16.52;;;23.80;87.50;;;;;;4991095;28;20054;-87
2021/08/19 03:44:34;;;;;;;20.27;16.75;;;23.80;87.10;;;;;;4976599;28;20045;-85
2021/08/19 03:47:00;;;;;;;20.98;17.30;;;23.80;87.00;;;;;;4992552;28;20042;-85
2021/08/19 03:49:27;;;;;;;18.80;14.65;;;23.80;86.90;;;;;;4977432;28;20027;-85
2021/08/19 03:51:53;;;;;;;24.35;16.05;;;23.80;87.00;;;;;;4977285;28;20094;-87
2021/08/19 03:54:19;;;;;;;20.42;17.20;;;23.80;87.30;;;;;;4961096;28;20512;-85
2021/08/19 03:56:45;;;;;;;21.77;17.08;;;23.80;86.90;;;;;;4979792;28;20058;-87
2021/08/19 03:59:11;;;;;;;24.17;17.75;;;23.80;86.90;;;;;;4965089;28;20078;-87
2021/08/19 04:01:37;;;;;;;21.80;16.48;;;23.80;87.00;;;;;;4965794;28;20485;-91
2021/08/19 04:04:03;;;;;;;23.85;16.13;;;23.90;87.00;;;;;;4948920;28;20053;-85
2021/08/19 04:06:29;;;;;;;18.20;15.95;;;23.90;86.70;;;;;;4995355;28;20038;-85
2021/08/19 04:08:55;;;;;;;22.80;16.23;;;24.00;86.90;;;;;;4946559;29;20031;-86
2021/08/19 04:11:21;;;;;;;21.92;17.60;;;24.10;86.80;;;;;;4945825;29;20129;-86
2021/08/19 04:13:47;;;;;;;18.98;16.55;;;24.10;86.30;;;;;;4945977;29;20062;-87
2021/08/19 04:16:13;;;;;;;19.48;16.55;;;24.10;86.30;;;;;;4963618;29;20035;-87
2021/08/19 04:18:39;;;;;;;17.42;15.57;;;24.20;86.10;;;;;;4963489;29;20045;-87
2021/08/19 04:21:05;;;;;;;18.10;15.40;;;24.20;86.00;;;;;;4963337;29;20534;-87
2021/08/19 04:23:31;;;;;;;22.02;15.60;;;24.30;85.80;;;;;;4960219;28;20039;-86
2021/08/19 04:25:56;;;;;;;21.52;18.13;;;24.40;85.90;;;;;;4985111;28;20033;-86
2021/08/19 04:28:23;;;;;;;20.80;16.15;;;24.50;85.50;;;;;;4992064;28;20039;-84
2021/08/19 04:30:49;;;;;;;22.55;19.45;;;24.40;85.30;;;;;;4991799;28;20521;-86
2021/08/19 04:33:14;;;;;;;22.55;16.63;;;24.50;85.40;;;;;;4992562;28;20069;-85
2021/08/19 04:35:42;;;;;;;20.60;15.50;;;24.60;85.30;;;;;;4975905;28;20465;-85
2021/08/19 04:38:08;;;;;;;21.33;16.52;;;24.60;85.40;;;;;;4975927;28;20039;-86
2021/08/19 04:40:34;;;;;;;21.00;18.25;;;24.70;85.20;;;;;;4977471;28;20490;-89
2021/08/19 04:43:00;;;;;;;23.02;15.85;;;24.80;84.70;;;;;;4982648;28;20130;-91
2021/08/19 04:45:26;;;;;;;26.23;17.70;;;24.90;84.70;;;;;;4993043;28;20074;-84
2021/08/19 04:47:52;;;;;;;24.67;18.02;;;25.00;84.60;;;;;;4976527;28;20038;-84
2021/08/19 04:50:18;;;;;;;22.42;20.02;;;25.00;84.10;;;;;;4992940;28;20406;-84
2021/08/19 04:52:43;;;;;;;22.77;18.23;;;25.00;83.80;;;;;;4976214;28;20458;-83
2021/08/19 04:55:09;;;;;;;20.67;18.25;;;24.90;84.00;;;;;;4975772;28;20061;-84
2021/08/19 04:57:35;;;;;;;22.42;19.10;;;24.80;84.30;;;;;;4964380;28;20035;-88
2021/08/19 05:00:01;;;;;;;26.25;19.55;;;24.70;84.60;;;;;;4982020;28;20066;-89
2021/08/19 05:02:27;;;;;;;26.88;20.25;;;24.60;84.70;;;;;;4965773;28;20196;-90
2021/08/19 05:04:53;;;;;;;22.10;16.45;;;24.60;84.90;;;;;;4965811;28;20054;-90
2021/08/19 05:07:19;;;;;;;25.50;19.08;;;24.70;85.10;;;;;;4965930;28;20035;-90
2021/08/19 05:09:45;;;;;;;22.95;19.02;;;24.80;85.10;;;;;;4966138;28;20067;-90
2021/08/19 05:12:11;;;;;;;24.05;18.02;;;24.90;84.70;;;;;;4965908;28;20038;-90
2021/08/19 05:14:37;;;;;;;24.13;18.75;;;25.20;84.30;;;;;;4964918;28;20042;-89
2021/08/19 05:17:03;;;;;;;26.80;19.95;;;25.40;83.30;;;;;;4964972;28;20050;-90
2021/08/19 05:19:29;;;;;;;26.52;20.50;;;25.60;82.60;;;;;;4965460;28;20042;-87
2021/08/19 05:21:55;;;;;;;20.48;16.52;;;25.70;82.10;;;;;;4964448;28;20042;-87
2021/08/19 05:24:21;;;;;;;24.67;17.38;;;25.80;82.00;;;;;;4964306;28;20106;-88
2021/08/19 05:26:47;;;;;;;17.48;15.55;;;26.00;81.70;;;;;;4980260;28;20547;-87
2021/08/19 05:29:12;;;;;;;21.73;17.13;;;26.20;81.60;;;;;;4964326;28;20058;-87
2021/08/19 05:31:38;;;;;;;21.77;16.58;;;26.40;80.90;;;;;;4964114;28;20034;-84
2021/08/19 05:34:08;;;;;;;20.10;14.68;;;26.60;80.20;;;;;;4957852;29;20094;-88
2021/08/19 05:36:35;;;;;;;20.48;16.67;;;26.90;80.00;;;;;;4944685;29;20046;-85
2021/08/19 05:39:01;;;;;;;18.90;14.07;;;27.00;79.20;;;;;;4962065;29;20049;-85
2021/08/19 05:41:26;;;;;;;23.13;17.90;;;27.20;79.20;;;;;;4961154;29;20035;-86
2021/08/19 05:43:52;;;;;;;16.92;14.63;;;27.30;78.20;;;;;;4944371;29;20093;-86
2021/08/19 05:46:18;;;;;;;23.15;18.17;;;27.20;78.10;;;;;;4961669;28;20031;-86
2021/08/19 05:48:44;;;;;;;21.23;16.95;;;27.20;78.20;;;;;;4980242;28;20034;-86
2021/08/19 05:51:11;;;;;;;19.55;16.92;;;27.10;78.10;;;;;;4963749;28;20074;-86
2021/08/19 05:53:37;;;;;;;18.80;16.80;;;27.00;78.20;;;;;;4963962;28;20061;-86
2021/08/19 05:56:03;;;;;;;18.92;16.15;;;27.00;78.90;;;;;;4979502;28;20487;-86
2021/08/19 05:58:31;;;;;;;19.50;15.88;;;27.00;79.00;;;;;;4996050;28;20505;-86
2021/08/19 06:00:56;;;;;;;18.90;14.25;;;27.20;79.10;;;;;;4960313;29;20231;-85
2021/08/19 06:03:22;;;;;;;20.40;15.07;;;27.10;78.10;;;;;;4944191;29;20031;-85
2021/08/19 06:05:49;;;;;;;20.40;14.98;;;27.20;77.80;;;;;;4960989;29;20186;-85
2021/08/19 06:08:16;;;;;;;18.20;14.32;;;27.30;77.70;;;;;;4954054;28;20406;-84
2021/08/19 06:10:42;;;;;;;17.85;14.65;;;27.30;77.70;;;;;;4963873;28;20034;-84
2021/08/19 06:13:08;;;;;;;20.15;12.25;;;27.40;77.10;;;;;;4980687;28;20034;-83
2021/08/19 06:15:34;;;;;;;18.45;14.45;;;27.50;77.10;;;;;;4963465;28;20509;-83
2021/08/19 06:18:00;;;;;;;16.67;12.40;;;27.60;76.60;;;;;;4980224;28;20046;-84
2021/08/19 06:20:26;;;;;;;16.75;12.77;;;27.70;76.60;;;;;;4963311;28;20041;-84
2021/08/19 06:22:55;;;;;;;16.45;13.82;;;27.80;76.50;;;;;;4979265;28;20038;-82
2021/08/19 06:25:21;;;;;;;18.00;13.60;;;27.70;76.00;;;;;;4963097;28;20038;-83
2021/08/19 06:27:47;;;;;;;15.85;13.95;;;27.70;76.50;;;;;;4979659;28;20042;-84
2021/08/19 06:30:14;;;;;;;18.35;14.70;;;27.70;76.40;;;;;;4963074;28;20061;-84
2021/08/19 06:32:41;;;;;;;15.73;12.38;;;27.70;75.90;;;;;;4962857;28;20121;-83
2021/08/19 06:35:08;;;;;;;18.55;14.68;;;27.80;76.10;;;;;;4995061;28;20065;-83
2021/08/19 06:37:35;;;;;;;13.68;12.27;;;27.90;75.60;;;;;;4956640;29;20039;-84
2021/08/19 06:40:01;;;;;;;18.02;14.65;;;27.80;75.60;;;;;;4961117;29;20038;-83
2021/08/19 06:42:27;;;;;;;18.67;15.40;;;27.70;75.50;;;;;;4960814;29;20079;-83
2021/08/19 06:44:53;;;;;;;18.48;14.90;;;27.60;74.90;;;;;;4960699;29;20236;-84
2021/08/19 06:47:19;;;;;;;18.85;14.70;;;27.50;75.10;;;;;;4943275;29;20027;-85
2021/08/19 06:49:46;;;;;;;15.80;12.95;;;27.30;75.70;;;;;;4943249;29;20399;-85
2021/08/19 06:52:12;;;;;;;15.85;13.85;;;27.10;76.00;;;;;;4974587;28;20023;-87
2021/08/19 06:54:37;;;;;;;17.77;14.48;;;27.20;76.50;;;;;;4978869;28;20056;-85
2021/08/19 06:57:04;;;;;;;16.88;13.15;;;27.30;76.30;;;;;;4966249;28;20047;-87
2021/08/19 06:59:30;;;;;;;19.50;14.98;;;27.40;76.10;;;;;;4963052;28;20057;-85
2021/08/19 07:01:55;;;;;;;17.30;12.45;;;27.40;75.60;;;;;;4980044;28;20501;-86
2021/08/19 07:04:23;;;;;;;19.42;14.65;;;27.50;76.00;;;;;;4977424;28;20045;-79
2021/08/19 07:06:52;;;;;;;18.95;13.40;;;27.40;75.80;;;;;;4975839;28;20585;-81
2021/08/19 07:09:20;;;;;;;14.85;12.82;;;27.30;75.90;;;;;;4975659;28;20478;-78
2021/08/19 07:11:47;;;;;;;12.70;10.85;;;27.30;76.30;;;;;;4978062;28;20444;-80
2021/08/19 07:14:13;;;;;;;17.90;13.82;;;27.40;76.70;;;;;;4961470;28;20045;-87
2021/08/19 07:16:39;;;;;;;16.55;13.05;;;27.40;76.10;;;;;;4953766;28;20090;-85
2021/08/19 07:19:05;;;;;;;18.15;14.48;;;27.30;75.80;;;;;;4970775;28;20473;-86
2021/08/19 07:21:32;;;;;;;16.95;13.95;;;27.30;75.60;;;;;;4957926;29;20054;-86
2021/08/19 07:23:58;;;;;;;16.08;13.82;;;27.20;75.60;;;;;;4972332;28;20024;-88
2021/08/19 07:26:24;;;;;;;18.35;15.23;;;27.10;76.10;;;;;;4985029;28;20035;-88
2021/08/19 07:28:55;;;;;;;18.23;13.88;;;27.10;76.10;;;;;;4978440;28;20035;-86
2021/08/19 07:31:21;;;;;;;17.80;15.02;;;27.10;76.20;;;;;;4955930;28;20033;-86
2021/08/19 07:33:47;;;;;;;19.10;16.48;;;27.00;76.50;;;;;;4933305;29;20118;-86
2021/08/19 07:36:13;;;;;;;17.50;14.80;;;27.00;76.10;;;;;;4971650;28;20081;-87
2021/08/19 07:38:40;;;;;;;19.63;13.82;;;26.90;76.40;;;;;;4979051;28;20035;-87
2021/08/19 07:41:07;;;;;;;18.20;14.55;;;26.80;77.20;;;;;;4946355;28;20039;-83
2021/08/19 07:43:33;;;;;;;18.70;14.68;;;26.70;77.40;;;;;;4980427;28;20034;-93
2021/08/19 07:45:59;;;;;;;20.55;14.30;;;26.70;77.70;;;;;;4955019;28;20035;-91
2021/08/19 07:48:25;;;;;;;16.88;14.32;;;26.70;77.90;;;;;;4979781;28;20046;-89
2021/08/19 07:50:51;;;;;;;17.30;14.32;;;26.80;77.60;;;;;;4980915;28;20021;-92
2021/08/19 07:53:17;;;;;;;16.48;13.25;;;26.90;77.90;;;;;;4979898;28;20163;-91
2021/08/19 07:55:45;;;;;;;15.13;13.27;;;26.80;78.20;;;;;;4965100;28;20218;-93
2021/08/19 07:58:14;;;;;;;17.77;12.30;;;26.80;77.50;;;;;;4967571;28;20067;-94
2021/08/19 08:00:42;;;;;;;16.23;13.10;;;26.80;77.70;;;;;;4982760;28;20058;-92
2021/08/19 08:03:08;;;;;;;16.30;12.60;;;26.90;78.10;;;;;;4966246;28;20039;-89
2021/08/19 08:05:44;;;;;;;14.65;12.13;;;26.90;78.10;;;;;;4982579;28;20042;-89
2021/08/19 08:08:11;;;;;;;16.35;13.05;;;27.00;78.40;;;;;;4988799;28;20038;-95
2021/08/19 08:10:38;;;;;;;22.20;14.90;;;27.10;78.10;;;;;;4987613;28;20117;-87
2021/08/19 08:13:09;;;;;;;18.50;15.88;;;27.20;77.50;;;;;;4964221;28;20039;-85
2021/08/19 08:18:04;;;;;;;22.20;16.40;;;27.30;77.00;;;;;;5037667;28;20060;-91
2021/08/19 08:20:31;;;;;;;17.38;14.93;;;27.30;76.60;;;;;;5008783;28;20033;-92
2021/08/19 08:22:57;;;;;;;17.60;13.30;;;27.20;76.40;;;;;;5026278;28;20048;-96
2021/08/19 08:25:25;;;;;;;14.73;12.85;;;27.10;76.60;;;;;;5010279;28;20040;-90
2021/08/19 08:27:58;;;;;;;17.65;12.50;;;27.20;77.50;;;;;;5005545;28;20515;-89
2021/08/19 08:30:27;;;;;;;14.00;12.15;;;27.10;77.40;;;;;;5023918;28;20500;-91
2021/08/19 08:32:53;;;;;;;15.38;11.95;;;27.20;77.20;;;;;;4998797;28;20037;-90
2021/08/19 08:35:19;;;;;;;13.85;11.80;;;27.20;77.10;;;;;;5023163;28;20034;-94
2021/08/19 08:37:45;;;;;;;12.05;10.70;;;27.30;76.50;;;;;;5007458;28;20052;-94
2021/08/19 08:40:18;;;;;;;12.70;11.40;;;27.30;76.50;;;;;;5007693;28;20038;-92
2021/08/19 08:42:45;;;;;;;14.23;11.25;;;27.30;76.40;;;;;;4984055;28;20037;-92
2021/08/19 08:45:13;;;;;;;15.18;11.25;;;27.30;76.60;;;;;;5069723;23;20065;-94
2021/08/19 08:47:40;;;;;;;18.60;11.65;;;27.30;77.00;;;;;;4983952;28;20029;-92
2021/08/19 08:50:10;;;;;;;14.30;10.93;;;27.40;77.50;;;;;;4998115;28;20032;-92
2021/08/19 08:52:38;;;;;;;15.38;11.90;;;27.40;76.90;;;;;;4981909;28;20505;-92
2021/08/19 08:55:05;;;;;;;16.02;11.40;;;27.40;76.60;;;;;;5001237;28;20034;-95
2021/08/19 08:57:35;;;;;;;13.57;10.85;;;27.40;76.20;;;;;;4982144;28;20128;-95
2021/08/19 09:00:11;;;;;;;14.25;10.55;;;27.40;75.80;;;;;;5022325;28;20034;-94
2021/08/19 09:02:44;;;;;;;14.10;10.73;;;27.40;75.70;;;;;;4985632;28;20025;-94
2021/08/19 09:05:22;;;;;;;13.65;10.63;;;27.40;76.10;;;;;;5004425;28;20088;-95
2021/08/19 09:07:59;;;;;;;15.30;10.20;;;27.50;77.10;;;;;;4982792;28;20042;-91
2021/08/19 09:10:27;;;;;;;15.50;10.93;;;27.50;76.50;;;;;;4982609;28;20034;-90
2021/08/19 09:12:54;;;;;;;16.23;10.73;;;27.50;76.00;;;;;;4981618;28;20041;-89
2021/08/19 09:15:23;;;;;;;14.90;10.73;;;27.50;75.90;;;;;;4981614;28;20042;-92
2021/08/19 09:17:54;;;;;;;14.90;10.65;;;27.50;76.30;;;;;;4965710;28;20157;-87
2021/08/19 09:20:22;;;;;;;15.63;10.95;;;27.50;76.00;;;;;;4999572;28;20038;-89
2021/08/19 09:22:57;;;;;;;13.57;11.02;;;27.50;75.80;;;;;;4983773;28;20041;-91
2021/08/19 09:25:31;;;;;;;15.65;10.95;;;27.40;75.80;;;;;;4994005;28;20539;-92
2021/08/19 09:28:13;;;;;;;13.18;10.60;;;27.40;75.60;;;;;;4979494;28;20073;-94
2021/08/19 09:30:42;;;;;;;14.85;11.35;;;27.40;75.70;;;;;;4979671;28;20042;-89
2021/08/19 09:33:09;;;;;;;13.18;10.32;;;27.40;75.90;;;;;;4989676;28;20038;-93
2021/08/19 09:35:41;;;;;;;12.38;10.52;;;27.40;76.30;;;;;;5015345;28;20042;-91
2021/08/19 09:38:15;;;;;;;15.43;10.48;;;27.40;76.50;;;;;;4982911;28;20034;-91
2021/08/19 09:40:43;;;;;;;15.93;12.07;;;27.50;76.30;;;;;;4997715;28;20029;-90
2021/08/19 09:43:12;;;;;;;16.17;11.10;;;27.50;76.00;;;;;;4999285;28;20268;-87
2021/08/19 09:45:45;;;;;;;12.98;10.18;;;27.50;76.10;;;;;;5014754;28;20054;-91
2021/08/19 09:48:14;;;;;;;13.02;9.98;;;27.50;76.70;;;;;;4997189;28;20041;-88
2021/08/19 09:50:40;;;;;;;13.23;11.10;;;27.50;75.40;;;;;;5014525;28;20038;-88
2021/08/19 09:53:23;;;;;;;16.63;10.57;;;27.60;75.30;;;;;;4995953;28;20096;-90
2021/08/19 09:55:51;;;;;;;12.77;10.57;;;27.60;75.40;;;;;;4997012;28;20038;-86
2021/08/19 09:58:29;;;;;;;15.38;10.05;;;27.60;75.80;;;;;;4998779;28;20065;-90
2021/08/19 10:00:55;;;;;;;11.25;9.98;;;27.60;75.70;;;;;;5002625;28;20065;-88
2021/08/19 10:03:21;;;;;;;13.00;10.18;;;27.60;76.10;;;;;;4980709;28;20037;-89
2021/08/19 10:05:47;;;;;;;16.05;11.30;;;27.60;76.60;;;;;;5014963;28;20049;-89
2021/08/19 10:08:13;;;;;;;16.23;10.77;;;27.70;76.30;;;;;;4981835;28;20069;-91
2021/08/19 10:10:43;;;;;;;15.07;11.52;;;27.60;75.60;;;;;;4997329;28;20046;-83
2021/08/19 10:13:14;;;;;;;14.75;10.70;;;27.60;76.40;;;;;;4996739;28;20460;-92
2021/08/19 10:15:44;;;;;;;14.27;11.15;;;27.70;76.60;;;;;;4995744;28;20048;-93
2021/08/19 10:18:16;;;;;;;16.77;11.05;;;27.70;76.60;;;;;;4997892;28;20046;-91
2021/08/19 10:20:47;;;;;;;13.48;10.82;;;27.70;75.60;;;;;;4981504;28;20111;-91
2021/08/19 10:23:15;;;;;;;15.75;11.10;;;27.70;75.90;;;;;;4998088;28;20041;-91
2021/08/19 10:25:48;;;;;;;14.23;10.75;;;27.70;76.20;;;;;;4981202;28;20037;-92
2021/08/19 10:28:20;;;;;;;14.75;10.10;;;27.70;76.20;;;;;;4999495;28;20037;-95
2021/08/19 10:30:52;;;;;;;13.65;9.75;;;27.70;76.50;;;;;;4997729;28;20531;-93
2021/08/19 10:33:36;;;;;;;15.80;10.43;;;27.80;76.30;;;;;;4981336;28;20049;-93
2021/08/19 10:36:26;;;;;;;12.75;9.65;;;27.80;76.30;;;;;;4997067;28;20038;-92
2021/08/19 10:39:12;;;;;;;20.73;11.10;;;27.80;75.50;;;;;;4973496;28;20038;-93
2021/08/19 10:41:39;;;;;;;16.50;10.15;;;27.90;76.50;;;;;;4980749;28;20208;-93
2021/08/19 10:44:07;;;;;;;14.65;10.35;;;27.90;75.80;;;;;;4997753;28;20419;-93
2021/08/19 10:46:51;;;;;;;15.45;9.90;;;27.90;76.80;;;;;;4997292;28;20048;-88
2021/08/19 10:49:32;;;;;;;16.83;10.30;;;27.90;77.60;;;;;;4998508;28;20044;-91
2021/08/19 10:52:07;;;;;;;14.10;9.80;;;27.90;78.00;;;;;;5002234;28;20504;-91
2021/08/19 10:54:39;;;;;;;12.25;10.43;;;27.90;76.90;;;;;;4998155;28;20041;-91
2021/08/19 10:57:24;;;;;;;15.90;10.27;;;27.90;75.90;;;;;;4979635;28;20065;-91
2021/08/19 10:59:58;;;;;;;11.35;9.88;;;27.90;76.50;;;;;;4995815;28;20030;-91
2021/08/19 11:02:43;;;;;;;15.27;9.88;;;27.90;77.10;;;;;;4980048;28;20095;-91
2021/08/19 11:05:25;;;;;;;12.80;9.52;;;27.90;76.00;;;;;;4997052;28;20040;-91
2021/08/19 11:08:02;;;;;;;14.40;9.63;;;27.90;75.50;;;;;;5009840;28;20149;-90
2021/08/19 11:10:35;;;;;;;11.23;9.90;;;27.80;75.60;;;;;;5008396;28;20045;-91
2021/08/19 11:13:06;;;;;;;13.50;8.95;;;27.80;76.00;;;;;;4980146;28;20417;-91
2021/08/19 11:15:36;;;;;;;13.32;10.30;;;27.90;76.10;;;;;;4979866;28;20038;-91
2021/08/19 11:18:02;;;;;;;14.88;9.68;;;27.80;74.00;;;;;;5013216;28;20424;-91
2021/08/19 11:20:33;;;;;;;13.38;9.27;;;27.80;74.80;;;;;;4996093;28;20485;-91
2021/08/19 11:23:06;;;;;;;11.43;8.90;;;27.80;75.50;;;;;;4995472;28;20505;-91
2021/08/19 11:25:35;;;;;;;11.75;9.68;;;27.80;75.60;;;;;;4995450;28;20124;-91
2021/08/19 11:28:10;;;;;;;13.75;9.55;;;27.80;76.00;;;;;;4995660;28;20029;-91
2021/08/19 11:30:39;;;;;;;13.70;9.35;;;27.80;75.40;;;;;;4995215;28;20504;-90
2021/08/19 11:33:11;;;;;;;12.80;8.70;;;27.90;76.00;;;;;;4979866;28;20068;-91
2021/08/19 11:35:38;;;;;;;11.15;8.57;;;27.80;75.30;;;;;;4995354;28;20133;-91
2021/08/19 11:38:19;;;;;;;11.05;9.48;;;27.90;74.20;;;;;;4995432;28;20116;-92
2021/08/19 11:40:48;;;;;;;11.02;8.80;;;27.90;74.10;;;;;;4979801;28;20481;-91
2021/08/19 11:43:30;;;;;;;9.98;8.50;;;27.80;74.20;;;;;;4995323;28;20033;-91
2021/08/19 11:46:03;;;;;;;11.75;8.15;;;27.80;73.50;;;;;;4995631;28;20504;-91
2021/08/19 11:48:29;;;;;;;14.52;9.57;;;27.80;74.40;;;;;;4995299;28;20044;-92
2021/08/19 11:50:58;;;;;;;11.23;9.38;;;27.80;73.80;;;;;;5013154;28;20045;-91
2021/08/19 11:53:24;;;;;;;10.55;8.07;;;27.80;73.80;;;;;;4979503;28;20041;-92
2021/08/19 11:55:52;;;;;;;11.13;8.73;;;27.80;74.50;;;;;;4986296;28;20034;-91
2021/08/19 11:58:26;;;;;;;13.90;9.80;;;27.80;74.10;;;;;;5020910;28;20509;-90
2021/08/19 12:01:05;;;;;;;10.27;8.77;;;27.80;74.20;;;;;;5000271;28;20119;-91
2021/08/19 12:03:36;;;;;;;10.98;8.43;;;27.80;73.10;;;;;;5013786;28;20049;-91
2021/08/19 12:06:13;;;;;;;11.88;8.73;;;27.70;73.40;;;;;;4996164;28;20041;-91
2021/08/19 12:08:52;;;;;;;15.75;9.73;;;27.70;73.70;;;;;;4995512;28;20034;-91
2021/08/19 12:11:23;;;;;;;13.00;8.88;;;27.80;74.00;;;;;;4979070;28;20043;-91
2021/08/19 12:13:50;;;;;;;17.77;9.23;;;27.80;74.00;;;;;;4995200;28;20046;-94
2021/08/19 12:16:21;;;;;;;13.38;8.65;;;27.80;73.70;;;;;;4996098;28;20041;-89
2021/08/19 12:19:26;;;;;;;9.27;8.35;;;27.80;73.90;;;;;;4999142;28;20040;-89
2021/08/19 12:21:52;;;;;;;12.93;8.57;;;27.80;73.20;;;;;;4948449;29;20027;-93
2021/08/19 12:24:22;;;;;;;14.38;8.88;;;27.80;74.00;;;;;;5011741;28;20068;-85
2021/08/19 12:27:01;;;;;;;10.25;8.88;;;27.80;73.80;;;;;;4989862;28;20057;-85
2021/08/19 12:29:33;;;;;;;13.30;9.25;;;27.80;73.20;;;;;;5006491;28;20041;-84
2021/08/19 12:32:00;;;;;;;10.30;9.15;;;27.80;72.70;;;;;;5006617;28;20119;-90
2021/08/19 12:34:27;;;;;;;13.70;9.38;;;27.80;72.60;;;;;;5030275;28;20029;-96
2021/08/19 12:37:04;;;;;;;10.35;8.75;;;27.70;73.00;;;;;;5008913;28;20065;-91